sensor_id;sensor_type;location;lat;lon;timestamp;pressure;altitude;pressure_sealevel;temperature;humidity
7075;BME280;3578;51.568;6.932;2022-07-11T00:01:21;56002.81;;;-144.14;92.88
7075;BME280;3578;51.568;6.932;2022-07-11T00:03:48;55952.66;;;-144.14;93.13
7075;BME280;3578;51.568;6.932;2022-07-11T00:06:15;55848.38;;;-144.14;93.50
7075;BME280;3578;51.568;6.932;2022-07-11T00:08:42;55886.47;;;-144.14;93.61
7075;BME280;3578;51.568;6.932;2022-07-11T00:11:09;55874.44;;;-144.14;93.66
7075;BME280;3578;51.568;6.932;2022-07-11T00:13:37;55846.38;;;-144.14;94.15
7075;BME280;3578;51.568;6.932;2022-07-11T00:16:06;55876.44;;;-144.14;94.01
7075;BME280;3578;51.568;6.932;2022-07-11T00:18:34;55840.34;;;-144.14;94.04
7075;BME280;3578;51.568;6.932;2022-07-11T00:21:01;55808.25;;;-144.14;94.36
7075;BME280;3578;51.568;6.932;2022-07-11T00:23:29;55812.28;;;-144.14;94.38
7075;BME280;3578;51.568;6.932;2022-07-11T00:25:56;55756.13;;;-144.14;94.53
7075;BME280;3578;51.568;6.932;2022-07-11T00:28:23;55760.13;;;-144.14;94.84
7075;BME280;3578;51.568;6.932;2022-07-11T00:30:50;55766.13;;;-144.14;95.21
7075;BME280;3578;51.568;6.932;2022-07-11T00:33:19;55728.03;;;-144.14;95.41
7075;BME280;3578;51.568;6.932;2022-07-11T00:35:47;55703.97;;;-144.14;95.66
7075;BME280;3578;51.568;6.932;2022-07-11T00:38:14;55695.94;;;-144.14;95.80
7075;BME280;3578;51.568;6.932;2022-07-11T00:40:41;55661.84;;;-144.14;95.88
7075;BME280;3578;51.568;6.932;2022-07-11T00:43:08;55649.81;;;-144.14;96.12
7075;BME280;3578;51.568;6.932;2022-07-11T00:45:35;55633.78;;;-144.14;96.36
7075;BME280;3578;51.568;6.932;2022-07-11T00:48:02;55679.91;;;-144.14;96.41
7075;BME280;3578;51.568;6.932;2022-07-11T00:50:31;55635.78;;;-144.14;96.70
7075;BME280;3578;51.568;6.932;2022-07-11T00:52:58;55609.72;;;-144.14;96.68
7075;BME280;3578;51.568;6.932;2022-07-11T00:55:26;55579.63;;;-144.14;97.02
7075;BME280;3578;51.568;6.932;2022-07-11T00:57:54;55563.59;;;-144.14;97.02
7075;BME280;3578;51.568;6.932;2022-07-11T01:00:22;55537.50;;;-144.14;97.21
7075;BME280;3578;51.568;6.932;2022-07-11T01:02:49;55567.59;;;-144.14;97.24
7075;BME280;3578;51.568;6.932;2022-07-11T01:05:16;55557.56;;;-144.14;97.53
7075;BME280;3578;51.568;6.932;2022-07-11T01:07:44;55557.56;;;-144.14;97.63
7075;BME280;3578;51.568;6.932;2022-07-11T01:10:11;55559.56;;;-144.14;97.62
7075;BME280;3578;51.568;6.932;2022-07-11T01:12:38;55555.56;;;-144.14;97.75
7075;BME280;3578;51.568;6.932;2022-07-11T01:15:06;55635.78;;;-144.14;97.67
7075;BME280;3578;51.568;6.932;2022-07-11T01:17:34;55599.69;;;-144.14;97.38
7075;BME280;3578;51.568;6.932;2022-07-11T01:20:01;55655.84;;;-144.14;97.32
7075;BME280;3578;51.568;6.932;2022-07-11T01:22:28;55659.84;;;-144.14;97.45
7075;BME280;3578;51.568;6.932;2022-07-11T01:24:57;55663.84;;;-144.14;97.62
7075;BME280;3578;51.568;6.932;2022-07-11T01:27:25;55675.91;;;-144.14;97.69
7075;BME280;3578;51.568;6.932;2022-07-11T01:29:52;55671.88;;;-144.14;97.91
7075;BME280;3578;51.568;6.932;2022-07-11T01:32:20;55651.81;;;-144.14;97.98
7075;BME280;3578;51.568;6.932;2022-07-11T01:34:47;55710.00;;;-144.14;97.76
7075;BME280;3578;51.568;6.932;2022-07-11T01:37:15;55710.00;;;-144.14;97.76
7075;BME280;3578;51.568;6.932;2022-07-11T01:39:42;55760.13;;;-144.14;97.93
7075;BME280;3578;51.568;6.932;2022-07-11T01:42:10;55776.16;;;-144.14;97.89
7075;BME280;3578;51.568;6.932;2022-07-11T01:44:37;55720.00;;;-144.14;97.83
7075;BME280;3578;51.568;6.932;2022-07-11T01:47:04;55734.06;;;-144.14;97.76
7075;BME280;3578;51.568;6.932;2022-07-11T01:49:31;55734.06;;;-144.14;97.97
7075;BME280;3578;51.568;6.932;2022-07-11T01:51:58;55732.06;;;-144.14;97.86
7075;BME280;3578;51.568;6.932;2022-07-11T01:54:25;55756.13;;;-144.14;97.83
7075;BME280;3578;51.568;6.932;2022-07-11T01:56:52;55736.06;;;-144.14;97.92
7075;BME280;3578;51.568;6.932;2022-07-11T01:59:21;55746.09;;;-144.14;97.88
7075;BME280;3578;51.568;6.932;2022-07-11T02:01:48;55772.16;;;-144.14;97.83
7075;BME280;3578;51.568;6.932;2022-07-11T02:04:15;55762.13;;;-144.14;97.92
7075;BME280;3578;51.568;6.932;2022-07-11T02:06:42;55770.16;;;-144.14;97.79
7075;BME280;3578;51.568;6.932;2022-07-11T02:09:09;55782.19;;;-144.14;97.53
7075;BME280;3578;51.568;6.932;2022-07-11T02:11:36;55776.16;;;-144.14;97.65
7075;BME280;3578;51.568;6.932;2022-07-11T02:14:03;55814.28;;;-144.14;97.42
7075;BME280;3578;51.568;6.932;2022-07-11T02:16:32;55812.28;;;-144.14;97.61
7075;BME280;3578;51.568;6.932;2022-07-11T02:18:59;55786.19;;;-144.14;97.65
7075;BME280;3578;51.568;6.932;2022-07-11T02:21:34;55788.19;;;-144.14;97.81
7075;BME280;3578;51.568;6.932;2022-07-11T02:24:02;55754.09;;;-144.14;97.62
7075;BME280;3578;51.568;6.932;2022-07-11T02:26:29;55800.25;;;-144.14;97.78
7075;BME280;3578;51.568;6.932;2022-07-11T02:28:56;55800.25;;;-144.14;97.63
7075;BME280;3578;51.568;6.932;2022-07-11T02:31:23;55794.22;;;-144.14;97.57
7075;BME280;3578;51.568;6.932;2022-07-11T02:33:52;55832.31;;;-144.14;97.13
7075;BME280;3578;51.568;6.932;2022-07-11T02:36:19;55878.47;;;-144.14;97.07
7075;BME280;3578;51.568;6.932;2022-07-11T02:38:46;55866.44;;;-144.14;97.22
7075;BME280;3578;51.568;6.932;2022-07-11T02:41:13;55900.53;;;-144.14;96.86
7075;BME280;3578;51.568;6.932;2022-07-11T02:43:40;55870.44;;;-144.14;96.76
7075;BME280;3578;51.568;6.932;2022-07-11T02:46:07;55876.44;;;-144.14;96.62
7075;BME280;3578;51.568;6.932;2022-07-11T02:48:34;55886.47;;;-144.14;96.72
7075;BME280;3578;51.568;6.932;2022-07-11T02:51:02;55896.50;;;-144.14;96.79
7075;BME280;3578;51.568;6.932;2022-07-11T02:53:30;55880.47;;;-144.14;96.79
7075;BME280;3578;51.568;6.932;2022-07-11T02:55:57;55884.47;;;-144.14;96.82
7075;BME280;3578;51.568;6.932;2022-07-11T02:58:24;55888.50;;;-144.14;96.83
7075;BME280;3578;51.568;6.932;2022-07-11T03:00:51;55868.44;;;-144.14;96.89
7075;BME280;3578;51.568;6.932;2022-07-11T03:03:18;55872.44;;;-144.14;97.22
7075;BME280;3578;51.568;6.932;2022-07-11T03:05:46;55876.44;;;-144.14;97.30
7075;BME280;3578;51.568;6.932;2022-07-11T03:08:14;55932.59;;;-144.14;97.03
7075;BME280;3578;51.568;6.932;2022-07-11T03:10:41;55942.63;;;-144.14;97.00
7075;BME280;3578;51.568;6.932;2022-07-11T03:13:08;55910.53;;;-144.14;96.90
7075;BME280;3578;51.568;6.932;2022-07-11T03:15:35;55924.59;;;-144.14;96.60
7075;BME280;3578;51.568;6.932;2022-07-11T03:18:02;55944.66;;;-144.14;96.88
7075;BME280;3578;51.568;6.932;2022-07-11T03:20:29;55942.63;;;-144.14;96.82
7075;BME280;3578;51.568;6.932;2022-07-11T03:22:56;55966.72;;;-144.14;96.52
7075;BME280;3578;51.568;6.932;2022-07-11T03:25:25;55952.66;;;-144.14;96.17
7075;BME280;3578;51.568;6.932;2022-07-11T03:27:52;55926.59;;;-144.14;96.06
7075;BME280;3578;51.568;6.932;2022-07-11T03:30:19;55910.53;;;-144.14;96.06
7075;BME280;3578;51.568;6.932;2022-07-11T03:32:46;55920.56;;;-144.14;96.08
7075;BME280;3578;51.568;6.932;2022-07-11T03:35:13;55920.56;;;-144.14;96.15
7075;BME280;3578;51.568;6.932;2022-07-11T03:37:58;55938.63;;;-144.14;96.20
7075;BME280;3578;51.568;6.932;2022-07-11T03:40:27;55948.66;;;-144.14;95.99
7075;BME280;3578;51.568;6.932;2022-07-11T03:42:54;55900.53;;;-144.14;95.21
7075;BME280;3578;51.568;6.932;2022-07-11T03:45:21;55918.56;;;-144.14;95.02
7075;BME280;3578;51.568;6.932;2022-07-11T03:47:48;55964.69;;;-144.14;94.73
7075;BME280;3578;51.568;6.932;2022-07-11T03:50:16;55932.59;;;-144.14;94.96
7075;BME280;3578;51.568;6.932;2022-07-11T03:52:43;55960.69;;;-144.14;94.83
7075;BME280;3578;51.568;6.932;2022-07-11T03:55:10;55960.69;;;-144.14;94.67
7075;BME280;3578;51.568;6.932;2022-07-11T03:57:39;55952.66;;;-144.14;94.38
7075;BME280;3578;51.568;6.932;2022-07-11T04:00:08;55974.72;;;-144.14;94.68
7075;BME280;3578;51.568;6.932;2022-07-11T04:02:36;55966.72;;;-144.14;94.76
7075;BME280;3578;51.568;6.932;2022-07-11T04:05:04;55978.75;;;-144.14;94.46
7075;BME280;3578;51.568;6.932;2022-07-11T04:07:31;55954.69;;;-144.14;94.54
7075;BME280;3578;51.568;6.932;2022-07-11T04:09:59;55976.72;;;-144.14;94.17
7075;BME280;3578;51.568;6.932;2022-07-11T04:12:26;55972.72;;;-144.14;94.03
7075;BME280;3578;51.568;6.932;2022-07-11T04:14:55;55988.78;;;-144.14;94.07
7075;BME280;3578;51.568;6.932;2022-07-11T04:17:22;55980.75;;;-144.14;93.87
7075;BME280;3578;51.568;6.932;2022-07-11T04:19:49;56006.81;;;-144.14;93.68
7075;BME280;3578;51.568;6.932;2022-07-11T04:22:17;56008.81;;;-144.14;93.84
7075;BME280;3578;51.568;6.932;2022-07-11T04:24:44;56010.84;;;-144.14;93.37
7075;BME280;3578;51.568;6.932;2022-07-11T04:27:11;56012.84;;;-144.14;93.39
7075;BME280;3578;51.568;6.932;2022-07-11T04:29:38;56058.97;;;-144.14;93.68
7075;BME280;3578;51.568;6.932;2022-07-11T04:32:08;56048.94;;;-144.14;93.35
7075;BME280;3578;51.568;6.932;2022-07-11T04:34:35;56036.91;;;-144.14;92.97
7075;BME280;3578;51.568;6.932;2022-07-11T04:37:02;56038.91;;;-144.14;92.70
7075;BME280;3578;51.568;6.932;2022-07-11T04:39:30;56069.00;;;-144.14;92.40
7075;BME280;3578;51.568;6.932;2022-07-11T04:41:58;56083.03;;;-144.14;92.19
7075;BME280;3578;51.568;6.932;2022-07-11T04:44:26;56095.06;;;-144.14;91.96
7075;BME280;3578;51.568;6.932;2022-07-11T04:46:53;56085.03;;;-144.14;91.44
7075;BME280;3578;51.568;6.932;2022-07-11T04:49:22;56113.13;;;-144.14;91.40
7075;BME280;3578;51.568;6.932;2022-07-11T04:51:50;56083.03;;;-144.14;90.32
7075;BME280;3578;51.568;6.932;2022-07-11T04:54:17;56117.13;;;-144.14;90.43
7075;BME280;3578;51.568;6.932;2022-07-11T04:56:44;56101.09;;;-144.14;90.33
7075;BME280;3578;51.568;6.932;2022-07-11T04:59:11;56107.09;;;-144.14;89.96
7075;BME280;3578;51.568;6.932;2022-07-11T05:01:38;56081.03;;;-144.14;89.44
7075;BME280;3578;51.568;6.932;2022-07-11T05:04:05;56091.06;;;-144.14;89.21
7075;BME280;3578;51.568;6.932;2022-07-11T05:06:34;56117.13;;;-144.14;89.13
7075;BME280;3578;51.568;6.932;2022-07-11T05:09:01;56113.13;;;-144.14;88.78
7075;BME280;3578;51.568;6.932;2022-07-11T05:11:30;56075.00;;;-144.14;88.41
7075;BME280;3578;51.568;6.932;2022-07-11T05:13:57;56127.16;;;-144.14;88.33
7075;BME280;3578;51.568;6.932;2022-07-11T05:16:24;56127.16;;;-144.14;88.30
7075;BME280;3578;51.568;6.932;2022-07-11T05:18:51;56131.19;;;-144.14;88.00
7075;BME280;3578;51.568;6.932;2022-07-11T05:21:18;56139.19;;;-144.14;87.89
7075;BME280;3578;51.568;6.932;2022-07-11T05:23:50;56175.31;;;-144.14;88.09
7075;BME280;3578;51.568;6.932;2022-07-11T05:26:17;56177.31;;;-144.14;88.05
7075;BME280;3578;51.568;6.932;2022-07-11T05:28:44;56173.31;;;-144.14;87.79
7075;BME280;3578;51.568;6.932;2022-07-11T05:31:11;56165.28;;;-144.14;87.73
7075;BME280;3578;51.568;6.932;2022-07-11T05:33:38;56165.28;;;-144.14;87.72
7075;BME280;3578;51.568;6.932;2022-07-11T05:36:06;56189.34;;;-144.14;87.85
7075;BME280;3578;51.568;6.932;2022-07-11T05:38:33;56245.50;;;-144.14;87.83
7075;BME280;3578;51.568;6.932;2022-07-11T05:41:01;56203.38;;;-144.14;87.92
7075;BME280;3578;51.568;6.932;2022-07-11T05:43:28;56209.41;;;-144.14;88.12
7075;BME280;3578;51.568;6.932;2022-07-11T05:45:55;56151.25;;;-144.14;87.38
7075;BME280;3578;51.568;6.932;2022-07-11T05:48:22;56137.19;;;-144.14;87.71
7075;BME280;3578;51.568;6.932;2022-07-11T05:50:49;56153.25;;;-144.14;88.02
7075;BME280;3578;51.568;6.932;2022-07-11T05:53:16;56165.28;;;-144.14;88.12
7075;BME280;3578;51.568;6.932;2022-07-11T05:55:43;56177.31;;;-144.14;88.21
7075;BME280;3578;51.568;6.932;2022-07-11T05:58:12;56249.53;;;-144.14;88.12
7075;BME280;3578;51.568;6.932;2022-07-11T06:00:39;56233.47;;;-144.14;88.46
7075;BME280;3578;51.568;6.932;2022-07-11T06:03:06;56229.47;;;-144.14;88.55
7075;BME280;3578;51.568;6.932;2022-07-11T06:05:33;56203.38;;;-144.14;88.05
7075;BME280;3578;51.568;6.932;2022-07-11T06:08:00;56217.44;;;-144.14;88.02
7075;BME280;3578;51.568;6.932;2022-07-11T06:10:45;56151.25;;;-144.14;88.55
7075;BME280;3578;51.568;6.932;2022-07-11T06:13:13;56223.44;;;-144.14;88.71
7075;BME280;3578;51.568;6.932;2022-07-11T06:15:40;56211.41;;;-144.14;88.58
7075;BME280;3578;51.568;6.932;2022-07-11T06:18:08;56225.44;;;-144.14;88.32
7075;BME280;3578;51.568;6.932;2022-07-11T06:20:35;56211.41;;;-144.14;88.55
7075;BME280;3578;51.568;6.932;2022-07-11T06:23:02;56273.59;;;-144.14;88.85
7075;BME280;3578;51.568;6.932;2022-07-11T06:25:29;56247.50;;;-144.14;88.79
7075;BME280;3578;51.568;6.932;2022-07-11T06:27:56;56243.50;;;-144.14;88.91
7075;BME280;3578;51.568;6.932;2022-07-11T06:30:24;56225.44;;;-144.14;88.64
7075;BME280;3578;51.568;6.932;2022-07-11T06:32:51;56205.41;;;-144.14;88.86
7075;BME280;3578;51.568;6.932;2022-07-11T06:35:18;56157.25;;;-144.14;89.60
7075;BME280;3578;51.568;6.932;2022-07-11T06:37:45;56151.25;;;-144.14;90.34
7075;BME280;3578;51.568;6.932;2022-07-11T06:40:13;56135.19;;;-144.14;90.91
7075;BME280;3578;51.568;6.932;2022-07-11T06:42:43;56149.22;;;-144.14;91.52
7075;BME280;3578;51.568;6.932;2022-07-11T06:45:10;56121.16;;;-144.14;92.40
7075;BME280;3578;51.568;6.932;2022-07-11T06:47:39;56133.19;;;-144.14;93.31
7075;BME280;3578;51.568;6.932;2022-07-11T06:50:07;56119.16;;;-144.14;93.77
7075;BME280;3578;51.568;6.932;2022-07-11T06:52:35;56139.19;;;-144.14;94.04
7075;BME280;3578;51.568;6.932;2022-07-11T06:55:02;56169.28;;;-144.14;93.81
7075;BME280;3578;51.568;6.932;2022-07-11T06:57:29;56197.38;;;-144.14;93.46
7075;BME280;3578;51.568;6.932;2022-07-11T06:59:56;56203.38;;;-144.14;93.37
7075;BME280;3578;51.568;6.932;2022-07-11T07:02:23;56275.59;;;-144.14;93.22
7075;BME280;3578;51.568;6.932;2022-07-11T07:04:55;56267.56;;;-144.14;92.37
7075;BME280;3578;51.568;6.932;2022-07-11T07:07:23;56365.88;;;-144.14;92.09
7075;BME280;3578;51.568;6.932;2022-07-11T07:09:50;56397.97;;;-144.14;91.13
7075;BME280;3578;51.568;6.932;2022-07-11T07:12:18;56414.00;;;-144.14;89.87
7075;BME280;3578;51.568;6.932;2022-07-11T07:14:45;56446.09;;;-144.14;89.07
7075;BME280;3578;51.568;6.932;2022-07-11T07:17:12;56440.09;;;-144.14;88.71
7075;BME280;3578;51.568;6.932;2022-07-11T07:19:39;56480.22;;;-144.14;88.37
7075;BME280;3578;51.568;6.932;2022-07-11T07:22:08;56504.28;;;-144.14;87.87
7075;BME280;3578;51.568;6.932;2022-07-11T07:24:35;56586.53;;;-144.14;86.85
7075;BME280;3578;51.568;6.932;2022-07-11T07:27:03;56540.38;;;-144.14;86.22
7075;BME280;3578;51.568;6.932;2022-07-11T07:29:31;56554.44;;;-144.14;85.85
7075;BME280;3578;51.568;6.932;2022-07-11T07:31:59;56546.41;;;-144.14;85.73
7075;BME280;3578;51.568;6.932;2022-07-11T07:34:26;56552.41;;;-144.14;86.01
7075;BME280;3578;51.568;6.932;2022-07-11T07:36:53;56556.44;;;-144.14;86.08
7075;BME280;3578;51.568;6.932;2022-07-11T07:39:21;56558.44;;;-144.14;86.49
7075;BME280;3578;51.568;6.932;2022-07-11T07:41:49;56576.50;;;-144.14;86.64
7075;BME280;3578;51.568;6.932;2022-07-11T07:44:16;56590.53;;;-144.14;86.39
7075;BME280;3578;51.568;6.932;2022-07-11T07:46:43;56592.53;;;-144.14;86.21
7075;BME280;3578;51.568;6.932;2022-07-11T07:49:10;56478.19;;;-144.14;85.67
7075;BME280;3578;51.568;6.932;2022-07-11T07:51:37;56454.13;;;-144.14;85.83
7075;BME280;3578;51.568;6.932;2022-07-11T07:54:05;56466.16;;;-144.14;86.30
7075;BME280;3578;51.568;6.932;2022-07-11T07:56:33;56462.16;;;-144.14;86.56
7075;BME280;3578;51.568;6.932;2022-07-11T07:59:00;56416.00;;;-144.14;86.42
7075;BME280;3578;51.568;6.932;2022-07-11T08:01:27;56395.94;;;-144.14;86.71
7075;BME280;3578;51.568;6.932;2022-07-11T08:04:03;56381.91;;;-144.14;87.50
7075;BME280;3578;51.568;6.932;2022-07-11T08:06:31;56412.00;;;-144.14;87.25
7075;BME280;3578;51.568;6.932;2022-07-11T08:08:58;56349.81;;;-144.14;87.03
7075;BME280;3578;51.568;6.932;2022-07-11T08:11:25;56373.88;;;-144.14;87.41
7075;BME280;3578;51.568;6.932;2022-07-11T08:13:54;56410.00;;;-144.14;87.58
7075;BME280;3578;51.568;6.932;2022-07-11T08:16:21;56490.22;;;-144.14;87.33
7075;BME280;3578;51.568;6.932;2022-07-11T08:18:48;56534.38;;;-144.14;87.28
7075;BME280;3578;51.568;6.932;2022-07-11T08:21:15;56646.72;;;-144.14;86.30
7075;BME280;3578;51.568;6.932;2022-07-11T08:23:42;56749.03;;;-144.14;85.13
7075;BME280;3578;51.568;6.932;2022-07-11T08:26:09;56845.31;;;-144.14;83.14
7075;BME280;3578;51.568;6.932;2022-07-11T08:28:36;56951.66;;;-144.14;80.59
7075;BME280;3578;51.568;6.932;2022-07-11T08:31:05;56983.75;;;-144.14;79.27
7075;BME280;3578;51.568;6.932;2022-07-11T08:33:32;56995.78;;;-144.14;78.25
7075;BME280;3578;51.568;6.932;2022-07-11T08:35:59;56861.38;;;-144.14;79.17
7075;BME280;3578;51.568;6.932;2022-07-11T08:38:27;56785.13;;;-144.14;80.33
7075;BME280;3578;51.568;6.932;2022-07-11T08:40:54;56767.06;;;-144.14;80.84
7075;BME280;3578;51.568;6.932;2022-07-11T08:43:27;56779.13;;;-144.14;82.10
7075;BME280;3578;51.568;6.932;2022-07-11T08:45:55;56708.91;;;-144.14;80.70
7075;BME280;3578;51.568;6.932;2022-07-11T08:48:24;56684.81;;;-144.14;81.90
7075;BME280;3578;51.568;6.932;2022-07-11T08:50:52;56716.91;;;-144.14;82.78
7075;BME280;3578;51.568;6.932;2022-07-11T08:53:19;56678.81;;;-144.14;82.76
7075;BME280;3578;51.568;6.932;2022-07-11T08:55:46;56805.19;;;-144.14;82.55
7075;BME280;3578;51.568;6.932;2022-07-11T08:58:14;56741.00;;;-144.14;81.27
7075;BME280;3578;51.568;6.932;2022-07-11T09:00:42;56690.84;;;-144.14;81.39
7075;BME280;3578;51.568;6.932;2022-07-11T09:03:14;56847.31;;;-144.14;79.44
7075;BME280;3578;51.568;6.932;2022-07-11T09:05:43;56859.38;;;-144.14;80.31
7075;BME280;3578;51.568;6.932;2022-07-11T09:08:10;56873.41;;;-144.14;80.23
7075;BME280;3578;51.568;6.932;2022-07-11T09:10:38;56843.31;;;-144.14;79.63
7075;BME280;3578;51.568;6.932;2022-07-11T09:13:09;56863.38;;;-144.14;80.40
7075;BME280;3578;51.568;6.932;2022-07-11T09:15:39;56843.31;;;-144.14;80.13
7075;BME280;3578;51.568;6.932;2022-07-11T09:18:32;56835.28;;;-144.14;80.61
7075;BME280;3578;51.568;6.932;2022-07-11T09:21:06;56799.19;;;-144.14;80.53
7075;BME280;3578;51.568;6.932;2022-07-11T09:23:52;56803.19;;;-144.14;80.82
7075;BME280;3578;51.568;6.932;2022-07-11T09:26:39;56722.94;;;-144.14;80.33
7075;BME280;3578;51.568;6.932;2022-07-11T09:29:09;56795.16;;;-144.14;80.15
7075;BME280;3578;51.568;6.932;2022-07-11T09:31:38;56763.06;;;-144.14;81.21
7075;BME280;3578;51.568;6.932;2022-07-11T09:34:07;56829.28;;;-144.14;80.95
7075;BME280;3578;51.568;6.932;2022-07-11T09:36:40;56809.22;;;-144.14;81.12
7075;BME280;3578;51.568;6.932;2022-07-11T09:39:10;56861.38;;;-144.14;80.67
7075;BME280;3578;51.568;6.932;2022-07-11T09:41:38;56845.31;;;-144.14;78.44
7075;BME280;3578;51.568;6.932;2022-07-11T09:44:11;56819.25;;;-144.14;77.68
7075;BME280;3578;51.568;6.932;2022-07-11T09:46:38;56883.44;;;-144.14;79.01
7075;BME280;3578;51.568;6.932;2022-07-11T09:49:05;56943.63;;;-144.14;79.17
7075;BME280;3578;51.568;6.932;2022-07-11T09:51:34;56915.53;;;-144.14;79.89
7075;BME280;3578;51.568;6.932;2022-07-11T09:54:04;56973.72;;;-144.14;79.14
7075;BME280;3578;51.568;6.932;2022-07-11T09:56:40;56981.75;;;-144.14;78.40
7075;BME280;3578;51.568;6.932;2022-07-11T09:59:11;56983.75;;;-144.14;78.59
7075;BME280;3578;51.568;6.932;2022-07-11T10:01:39;57015.84;;;-144.14;78.28
7075;BME280;3578;51.568;6.932;2022-07-11T10:04:08;57001.81;;;-144.14;77.44
7075;BME280;3578;51.568;6.932;2022-07-11T10:06:36;57025.88;;;-144.14;76.97
7075;BME280;3578;51.568;6.932;2022-07-11T10:09:06;56997.78;;;-144.14;76.58
7075;BME280;3578;51.568;6.932;2022-07-11T10:11:33;57039.94;;;-144.14;76.12
7075;BME280;3578;51.568;6.932;2022-07-11T10:14:03;57055.97;;;-144.14;76.17
7075;BME280;3578;51.568;6.932;2022-07-11T10:16:43;57076.03;;;-144.14;75.91
7075;BME280;3578;51.568;6.932;2022-07-11T10:19:25;57104.13;;;-144.14;75.26
7075;BME280;3578;51.568;6.932;2022-07-11T10:22:09;57128.22;;;-144.14;75.27
7075;BME280;3578;51.568;6.932;2022-07-11T10:24:48;57136.22;;;-144.14;76.30
7075;BME280;3578;51.568;6.932;2022-07-11T10:27:27;57019.88;;;-144.14;76.46
7075;BME280;3578;51.568;6.932;2022-07-11T10:29:56;57108.16;;;-144.14;76.46
7075;BME280;3578;51.568;6.932;2022-07-11T10:32:23;57088.09;;;-144.14;75.39
7075;BME280;3578;51.568;6.932;2022-07-11T10:35:07;57072.03;;;-144.14;75.66
7075;BME280;3578;51.568;6.932;2022-07-11T10:37:48;57076.03;;;-144.14;75.02
7075;BME280;3578;51.568;6.932;2022-07-11T10:40:44;57060.00;;;-144.14;75.86
7075;BME280;3578;51.568;6.932;2022-07-11T10:43:13;57122.19;;;-144.14;75.90
7075;BME280;3578;51.568;6.932;2022-07-11T10:45:59;57228.53;;;-144.14;76.14
7075;BME280;3578;51.568;6.932;2022-07-11T10:48:28;57204.44;;;-144.14;76.47
7075;BME280;3578;51.568;6.932;2022-07-11T10:51:11;57242.56;;;-144.14;75.73
7075;BME280;3578;51.568;6.932;2022-07-11T10:53:46;57288.72;;;-144.14;74.76
7075;BME280;3578;51.568;6.932;2022-07-11T10:57:02;57270.66;;;-144.14;73.80
7075;BME280;3578;51.568;6.932;2022-07-11T10:59:31;57238.56;;;-144.14;75.00
7075;BME280;3578;51.568;6.932;2022-07-11T11:02:11;57041.94;;;-144.14;74.66
7075;BME280;3578;51.568;6.932;2022-07-11T11:04:45;57236.56;;;-144.14;73.95
7075;BME280;3578;51.568;6.932;2022-07-11T11:07:41;57292.72;;;-144.14;73.00
7075;BME280;3578;51.568;6.932;2022-07-11T11:10:48;57280.69;;;-144.14;72.31
7075;BME280;3578;51.568;6.932;2022-07-11T11:13:17;57302.78;;;-144.14;71.79
7075;BME280;3578;51.568;6.932;2022-07-11T11:15:48;57260.63;;;-144.14;71.52
7075;BME280;3578;51.568;6.932;2022-07-11T11:18:41;57240.56;;;-144.14;72.32
7075;BME280;3578;51.568;6.932;2022-07-11T11:21:19;57216.50;;;-144.14;73.43
7075;BME280;3578;51.568;6.932;2022-07-11T11:24:05;57236.56;;;-144.14;73.14
7075;BME280;3578;51.568;6.932;2022-07-11T11:26:51;57188.41;;;-144.14;74.18
7075;BME280;3578;51.568;6.932;2022-07-11T11:29:25;57170.34;;;-144.14;73.82
7075;BME280;3578;51.568;6.932;2022-07-11T11:31:57;57204.44;;;-144.14;73.26
7075;BME280;3578;51.568;6.932;2022-07-11T11:34:26;57276.69;;;-144.14;74.51
7075;BME280;3578;51.568;6.932;2022-07-11T11:36:59;57332.88;;;-144.14;74.84
7075;BME280;3578;51.568;6.932;2022-07-11T11:39:31;57391.06;;;-144.14;73.45
7075;BME280;3578;51.568;6.932;2022-07-11T11:42:09;57330.84;;;-144.14;72.35
7075;BME280;3578;51.568;6.932;2022-07-11T11:44:53;57330.84;;;-144.14;72.59
7075;BME280;3578;51.568;6.932;2022-07-11T11:47:22;57312.81;;;-144.14;71.56
7075;BME280;3578;51.568;6.932;2022-07-11T11:49:50;57326.84;;;-144.14;71.95
7075;BME280;3578;51.568;6.932;2022-07-11T11:52:19;57308.78;;;-144.14;71.52
7075;BME280;3578;51.568;6.932;2022-07-11T11:54:55;57371.00;;;-144.14;72.24
7075;BME280;3578;51.568;6.932;2022-07-11T11:57:25;57312.81;;;-144.14;70.39
7075;BME280;3578;51.568;6.932;2022-07-11T11:59:54;57268.66;;;-144.14;72.54
7075;BME280;3578;51.568;6.932;2022-07-11T12:02:28;57336.88;;;-144.14;73.45
7075;BME280;3578;51.568;6.932;2022-07-11T12:04:56;57170.34;;;-144.14;73.74
7075;BME280;3578;51.568;6.932;2022-07-11T12:07:29;57248.59;;;-144.14;72.32
7075;BME280;3578;51.568;6.932;2022-07-11T12:09:58;57270.66;;;-144.14;72.88
7075;BME280;3578;51.568;6.932;2022-07-11T12:12:30;57268.66;;;-144.14;72.41
7075;BME280;3578;51.568;6.932;2022-07-11T12:15:30;57302.78;;;-144.14;73.27
7075;BME280;3578;51.568;6.932;2022-07-11T12:18:02;57373.00;;;-144.14;73.16
7075;BME280;3578;51.568;6.932;2022-07-11T12:20:39;57332.88;;;-144.14;73.14
7075;BME280;3578;51.568;6.932;2022-07-11T12:23:09;57140.25;;;-144.14;73.80
7075;BME280;3578;51.568;6.932;2022-07-11T12:25:37;57288.72;;;-144.14;73.61
7075;BME280;3578;51.568;6.932;2022-07-11T12:28:05;57290.72;;;-144.14;73.94
7075;BME280;3578;51.568;6.932;2022-07-11T12:30:35;57262.63;;;-144.14;72.96
7075;BME280;3578;51.568;6.932;2022-07-11T12:33:08;57212.47;;;-144.14;73.36
7075;BME280;3578;51.568;6.932;2022-07-11T12:35:35;57276.69;;;-144.14;74.75
7075;BME280;3578;51.568;6.932;2022-07-11T12:38:02;57332.88;;;-144.14;76.75
7075;BME280;3578;51.568;6.932;2022-07-11T12:40:30;57356.94;;;-144.14;75.17
7075;BME280;3578;51.568;6.932;2022-07-11T12:42:57;57413.13;;;-144.14;75.10
7075;BME280;3578;51.568;6.932;2022-07-11T12:45:24;57493.38;;;-144.14;74.19
7075;BME280;3578;51.568;6.932;2022-07-11T12:47:51;57561.63;;;-144.14;74.84
7075;BME280;3578;51.568;6.932;2022-07-11T12:50:21;57535.53;;;-144.14;70.65
7075;BME280;3578;51.568;6.932;2022-07-11T12:52:51;57607.78;;;-144.14;71.22
7075;BME280;3578;51.568;6.932;2022-07-11T12:55:22;57591.72;;;-144.14;69.99
7075;BME280;3578;51.568;6.932;2022-07-11T12:58:06;57613.78;;;-144.14;71.31
7075;BME280;3578;51.568;6.932;2022-07-11T13:00:35;57621.81;;;-144.14;72.59
7075;BME280;3578;51.568;6.932;2022-07-11T13:03:05;57643.88;;;-144.14;71.24
7075;BME280;3578;51.568;6.932;2022-07-11T13:05:48;57643.88;;;-144.14;69.95
7075;BME280;3578;51.568;6.932;2022-07-11T13:08:24;57621.81;;;-144.14;69.12
7075;BME280;3578;51.568;6.932;2022-07-11T13:11:12;57567.63;;;-144.14;71.05
7075;BME280;3578;51.568;6.932;2022-07-11T13:13:40;57525.50;;;-144.14;70.43